Airfield :







YOU CAN JOIN US ON...

 
LOGIN :

Register | Disclaimer

   EN    FR    IT 

 









Legend :    VFR   Marginal VFR   IFR   Intensive IFR   Very Intensive IFR
Visi :
Ceiling :
>= 8 km
>= 3000ft
5 to 8 km
1000 to 3000 ft
1500m to 5 km
500 to 1000 ft
800 to 1500m
200 to 500 ft
< 800m
< 200 ft
Symbols :   Thunderstorms  Fog  Heavy snow  Heavy precipitations  Wind > 20 kt







- Airport Elevation : 68 ft
- IATA code : YFC


CYFC - Fredericton

CURRENT METAR :
  • 181100Z AUTO 31004KT 9SM CLR 04/04 A3029 RMK SLP259

EXPIRED METARs :
  • 181000Z AUTO 31004KT 9SM CLR 04/03 A3027 RMK SLP253
  • 180900Z AUTO 31005KT 9SM CLR 04/04 A3025 RMK SLP246

TAF TAF CYFC
Valid from the 18 at 06:00 until the 18 at 18:00 UTC


180541Z 1806/1818 VRB03KT 6SM BR SKC
TEMPO 1806/1812 11/2SM BR BKN020
PROB40 1806/1812 3/4SM BR
FM181200 01010KT P6SM FEW030 RMK FCST BASED ON AUTO OBS. NXT FCST BY 181200Z
No reported NOTAMs for that airfield.



MET'MAP, your aeronautical weather chart ! - Copyright ORBIFLY December 2007 - Disclaimer

ORBIFLY MET'MAP TEAM :

Programming & Development : Alexandra Zaïnal
Concept & Development : Baudouin d'Aumeries
Co-Development & Prog : Marc-Olivier Méhu
Technical & hardware support : Manuel Goepfert

Contact : metmap@orbifly.com




SOURCES & CREDITS :

   NOAA